createdAt,value
2023-04-13T00:00:42.005Z,1.10
2023-04-13T00:03:12.200Z,1.00
2023-04-13T00:05:39.493Z,1.00
2023-04-13T00:08:07.031Z,1.13
2023-04-13T00:10:36.295Z,1.02
2023-04-13T00:13:05.469Z,1.08
2023-04-13T00:15:34.669Z,1.00
2023-04-13T00:18:01.845Z,0.93
2023-04-13T00:20:28.761Z,0.98
2023-04-13T00:22:55.407Z,0.70
2023-04-13T00:25:22.301Z,1.05
2023-04-13T00:27:53.129Z,1.10
2023-04-13T00:30:21.213Z,0.80
2023-04-13T00:32:48.767Z,0.70
2023-04-13T00:35:24.785Z,0.80
2023-04-13T00:37:52.784Z,0.80
2023-04-13T00:40:19.329Z,1.40
2023-04-13T00:42:47.451Z,0.70
2023-04-13T00:45:14.521Z,1.00
2023-04-13T00:47:43.505Z,0.52
2023-04-13T00:50:10.428Z,0.98
2023-04-13T00:52:40.421Z,0.55
2023-04-13T00:55:07.700Z,0.80
2023-04-13T00:57:35.250Z,1.00
2023-04-13T01:00:06.769Z,0.98
2023-04-13T01:02:34.245Z,0.57
2023-04-13T01:05:02.327Z,0.83
2023-04-13T01:07:44.709Z,1.30
2023-04-13T01:10:44.937Z,0.80
2023-04-13T01:13:20.680Z,0.90
2023-04-13T01:16:01.529Z,0.98
2023-04-13T01:18:30.424Z,1.42
2023-04-13T01:20:56.870Z,1.23
2023-04-13T01:23:32.159Z,1.40
2023-04-13T01:26:04.096Z,1.30
2023-04-13T01:28:31.002Z,2.08
2023-04-13T01:30:57.713Z,1.80
2023-04-13T01:33:25.401Z,1.65
2023-04-13T01:35:52.180Z,1.33
2023-04-13T01:38:24.530Z,0.80
2023-04-13T01:40:51.775Z,0.90
2023-04-13T01:43:20.596Z,0.98
2023-04-13T01:45:53.513Z,0.75
2023-04-13T01:48:28.127Z,0.93
2023-04-13T01:51:00.671Z,0.60
2023-04-13T01:53:46.455Z,1.10
2023-04-13T01:56:15.683Z,1.60
2023-04-13T01:58:43.004Z,1.50
2023-04-13T02:01:09.624Z,1.88
2023-04-13T02:03:36.350Z,1.45
2023-04-13T02:06:02.932Z,1.60
2023-04-13T02:08:32.515Z,1.95
2023-04-13T02:11:00.941Z,1.20
2023-04-13T02:13:27.391Z,1.30
2023-04-13T02:15:53.947Z,0.95
2023-04-13T02:18:20.577Z,1.17
2023-04-13T02:20:47.225Z,1.10
2023-04-13T02:23:15.005Z,1.20
2023-04-13T02:25:44.756Z,2.13
2023-04-13T02:28:12.424Z,1.45
2023-04-13T02:30:39.067Z,1.80
2023-04-13T02:33:07.048Z,1.40
2023-04-13T02:35:35.505Z,0.85
2023-04-13T02:40:28.698Z,1.10
2023-04-13T02:42:57.417Z,1.80
2023-04-13T02:45:23.886Z,1.63
2023-04-13T02:47:50.575Z,1.00
2023-04-13T02:50:18.586Z,2.15
2023-04-13T02:52:45.091Z,1.60
2023-04-13T02:55:11.674Z,1.90
2023-04-13T02:57:38.318Z,2.85
2023-04-13T03:00:12.293Z,1.58
2023-04-13T03:02:42.315Z,1.25
2023-04-13T03:05:09.431Z,1.60
2023-04-13T03:07:36.385Z,0.70
2023-04-13T03:10:05.714Z,0.77
2023-04-13T03:12:32.709Z,1.00
2023-04-13T03:15:10.935Z,0.68
2023-04-13T03:17:41.266Z,0.70
2023-04-13T03:20:16.706Z,0.85
2023-04-13T03:22:44.966Z,0.73
2023-04-13T03:25:11.600Z,0.80
2023-04-13T03:27:37.989Z,0.95
2023-04-13T03:30:04.748Z,0.70
2023-04-13T03:32:32.023Z,0.88
2023-04-13T03:34:58.899Z,0.65
2023-04-13T03:37:30.020Z,0.70
2023-04-13T03:39:56.660Z,0.95
2023-04-13T03:42:23.443Z,0.77
2023-04-13T03:44:49.844Z,0.70
2023-04-13T03:47:16.806Z,0.70
2023-04-13T03:49:43.156Z,0.98
2023-04-13T03:52:09.622Z,1.00
2023-04-13T03:54:36.088Z,0.80
2023-04-13T03:57:04.471Z,0.85
2023-04-13T03:59:30.994Z,0.85
2023-04-13T04:01:57.840Z,0.90
2023-04-13T04:04:24.516Z,0.80
2023-04-13T04:06:51.346Z,0.80
2023-04-13T04:09:18.478Z,1.02
2023-04-13T04:11:45.134Z,0.88
2023-04-13T04:14:11.799Z,0.88
2023-04-13T04:16:38.246Z,0.70
2023-04-13T04:19:04.612Z,0.82
2023-04-13T04:21:34.439Z,0.77
2023-04-13T04:24:06.413Z,0.80
2023-04-13T04:26:32.915Z,0.80
2023-04-13T04:29:02.938Z,1.00
2023-04-13T04:31:36.870Z,0.80
2023-04-13T04:34:03.882Z,0.85
2023-04-13T04:36:30.476Z,0.80
2023-04-13T04:39:02.572Z,1.13
2023-04-13T04:41:30.912Z,0.80
2023-04-13T04:43:57.812Z,0.60
2023-04-13T04:46:29.544Z,0.80
2023-04-13T04:49:00.453Z,0.88
2023-04-13T04:51:27.595Z,0.80
2023-04-13T04:53:54.186Z,0.70
2023-04-13T04:56:21.779Z,0.85
2023-04-13T04:58:48.273Z,1.10
2023-04-13T05:01:14.867Z,0.90
2023-04-13T05:03:41.390Z,1.10
2023-04-13T05:06:08.575Z,1.40
2023-04-13T05:08:35.157Z,1.10
2023-04-13T05:11:01.587Z,0.90
2023-04-13T05:13:28.069Z,0.80
2023-04-13T05:15:54.410Z,0.85
2023-04-13T05:18:20.813Z,0.80
2023-04-13T05:20:47.255Z,0.98
2023-04-13T05:23:13.903Z,1.17
2023-04-13T05:25:40.671Z,0.70
2023-04-13T05:28:07.220Z,1.00
2023-04-13T05:30:34.086Z,0.88
2023-04-13T05:33:05.558Z,0.75
2023-04-13T05:35:32.115Z,0.80
2023-04-13T05:38:00.717Z,1.05
2023-04-13T05:42:54.182Z,1.23
2023-04-13T05:45:21.498Z,1.77
2023-04-13T05:47:48.090Z,1.50
2023-04-13T05:50:14.549Z,1.40
2023-04-13T05:52:40.854Z,1.20
2023-04-13T05:55:07.544Z,1.20
2023-04-13T05:57:34.253Z,1.00
2023-04-13T06:00:00.723Z,1.00
2023-04-13T06:02:27.352Z,1.30
2023-04-13T06:04:55.177Z,0.90
2023-04-13T06:07:22.618Z,0.77
2023-04-13T06:09:49.752Z,1.02
2023-04-13T06:12:18.153Z,1.00
2023-04-13T06:14:44.911Z,0.90
2023-04-13T06:17:11.352Z,1.13
2023-04-13T06:19:38.004Z,1.35
2023-04-13T06:22:04.413Z,1.00
2023-04-13T06:24:33.718Z,1.50
2023-04-13T06:27:00.112Z,1.60
2023-04-13T06:29:26.567Z,1.38
2023-04-13T06:31:52.906Z,1.45
2023-04-13T06:34:19.333Z,1.92
2023-04-13T06:36:45.682Z,1.33
2023-04-13T06:39:12.032Z,1.20
2023-04-13T06:41:38.342Z,1.30
2023-04-13T06:44:04.897Z,1.70
2023-04-13T06:46:31.337Z,1.10
2023-04-13T06:48:58.105Z,1.20
2023-04-13T06:51:24.569Z,1.20
2023-04-13T06:53:52.448Z,1.08
2023-04-13T06:56:18.829Z,1.50
2023-04-13T06:58:45.471Z,1.23
2023-04-13T07:01:12.302Z,1.42
2023-04-13T07:03:38.974Z,1.23
2023-04-13T07:06:06.541Z,1.25
2023-04-13T07:08:34.275Z,1.00
2023-04-13T07:11:02.280Z,1.55
2023-04-13T07:13:28.980Z,1.52
2023-04-13T07:15:55.627Z,1.33
2023-04-13T07:18:22.012Z,1.10
2023-04-13T07:20:48.375Z,1.33
2023-04-13T07:23:15.021Z,0.90
2023-04-13T07:25:41.644Z,1.60
2023-04-13T07:28:08.149Z,1.65
2023-04-13T07:30:34.799Z,1.30
2023-04-13T07:33:01.709Z,1.45
2023-04-13T07:35:28.293Z,1.60
2023-04-13T07:37:55.305Z,1.60
2023-04-13T07:40:21.646Z,1.40
2023-04-13T07:42:51.409Z,1.50
2023-04-13T07:45:19.918Z,1.02
2023-04-13T07:50:13.380Z,1.10
2023-04-13T07:52:39.751Z,1.40
2023-04-13T07:55:07.508Z,1.17
2023-04-13T07:57:33.854Z,1.30
2023-04-13T08:00:00.286Z,1.25
2023-04-13T08:02:26.721Z,1.38
2023-04-13T08:04:53.377Z,1.10
2023-04-13T08:07:20.948Z,1.90
2023-04-13T08:09:49.526Z,1.42
2023-04-13T08:17:11.352Z,1.52
2023-04-13T08:19:37.942Z,1.20
2023-04-13T08:22:05.236Z,1.30
2023-04-13T08:24:32.186Z,1.13
2023-04-13T08:26:58.955Z,1.50
2023-04-13T08:29:26.302Z,1.13
2023-04-13T08:31:53.083Z,1.38
2023-04-13T08:34:19.704Z,0.85
2023-04-13T08:36:46.185Z,1.00
2023-04-13T08:39:13.275Z,1.13
2023-04-13T08:41:43.963Z,0.98
2023-04-13T08:44:12.389Z,1.05
2023-04-13T08:46:45.120Z,1.08
2023-04-13T08:49:12.681Z,1.60
2023-04-13T08:51:42.169Z,1.30
2023-04-13T08:54:08.948Z,0.98
2023-04-13T08:56:45.323Z,1.77
2023-04-13T08:59:15.297Z,1.48
2023-04-13T09:01:44.340Z,1.15
2023-04-13T09:04:13.741Z,1.02
2023-04-13T09:06:44.884Z,0.98
2023-04-13T09:09:15.809Z,1.40
2023-04-13T09:11:43.482Z,1.10
2023-04-13T09:14:10.194Z,1.38
2023-04-13T09:16:43.618Z,1.00
2023-04-13T09:19:11.157Z,0.90
2023-04-13T09:21:43.105Z,1.15
2023-04-13T09:24:10.822Z,1.20
2023-04-13T09:26:41.810Z,0.80
2023-04-13T09:29:11.651Z,1.15
2023-04-13T09:31:39.819Z,1.00
2023-04-13T09:34:08.179Z,1.08
2023-04-13T09:36:39.444Z,1.40
2023-04-13T09:39:13.661Z,1.60
2023-04-13T09:41:40.829Z,1.35
2023-04-13T09:44:20.769Z,1.17
2023-04-13T09:47:03.954Z,1.50
2023-04-13T09:49:40.822Z,1.25
2023-04-13T09:52:18.062Z,1.48
2023-04-13T09:54:49.650Z,1.52
2023-04-13T09:57:27.138Z,1.67
2023-04-13T09:59:54.882Z,1.73
2023-04-13T10:02:21.898Z,1.52
2023-04-13T10:04:48.402Z,2.03
2023-04-13T10:07:14.798Z,1.75
2023-04-13T10:09:44.608Z,1.63
2023-04-13T10:12:12.289Z,1.60
2023-04-13T10:14:41.040Z,1.57
2023-04-13T10:17:44.370Z,1.50
2023-04-13T10:20:13.610Z,1.70
2023-04-13T10:22:44.032Z,1.90
2023-04-13T10:25:31.527Z,1.60
2023-04-13T10:28:00.806Z,1.40
2023-04-13T10:30:28.092Z,1.70
2023-04-13T10:33:09.589Z,1.50
2023-04-13T10:35:42.914Z,1.70
2023-04-13T10:38:10.714Z,1.50
2023-04-13T10:40:47.640Z,2.35
2023-04-13T10:43:30.975Z,1.92
2023-04-13T10:46:13.414Z,1.75
2023-04-13T10:48:43.158Z,2.00
2023-04-13T10:51:09.626Z,1.48
2023-04-13T10:53:37.003Z,2.00
2023-04-13T10:56:05.385Z,1.83
2023-04-13T10:58:33.126Z,1.45
2023-04-13T11:01:00.075Z,1.92
2023-04-13T11:03:28.423Z,1.60
2023-04-13T11:05:59.665Z,2.05
2023-04-13T11:08:27.801Z,1.52
2023-04-13T11:10:55.563Z,1.40
2023-04-13T11:13:25.165Z,1.47
2023-04-13T11:15:51.953Z,2.00
2023-04-13T11:18:28.319Z,2.22
2023-04-13T11:20:55.382Z,1.88
2023-04-13T11:23:24.123Z,1.90
2023-04-13T11:25:56.106Z,2.75
2023-04-13T11:28:23.579Z,1.70
2023-04-13T11:30:57.012Z,1.77
2023-04-13T11:33:27.668Z,1.60
2023-04-13T11:35:58.912Z,2.20
2023-04-13T11:38:25.768Z,2.08
2023-04-13T11:40:58.887Z,2.20
2023-04-13T11:43:34.548Z,2.67
2023-04-13T11:46:01.178Z,2.67
2023-04-13T11:48:27.705Z,1.95
2023-04-13T11:50:54.975Z,2.08
2023-04-13T11:53:21.960Z,2.53
2023-04-13T11:55:53.406Z,2.50
2023-04-13T11:58:21.281Z,2.67
2023-04-13T12:00:49.270Z,3.33
2023-04-13T12:03:34.509Z,2.35
2023-04-13T12:06:05.866Z,1.98
2023-04-13T12:08:33.890Z,2.20
2023-04-13T12:13:48.453Z,2.40
2023-04-13T12:19:06.975Z,4.23
2023-04-13T12:21:35.200Z,6.07
2023-04-13T12:24:05.459Z,5.68
2023-04-13T12:29:05.250Z,13.60
2023-04-13T12:31:39.279Z,7.78
2023-04-13T12:34:07.898Z,6.80
2023-04-13T12:36:36.701Z,4.75
2023-04-13T12:39:04.757Z,4.30
2023-04-13T12:41:32.360Z,3.05
2023-04-13T12:43:59.252Z,3.40
2023-04-13T12:46:26.592Z,3.70
2023-04-13T12:48:53.383Z,2.55
2023-04-13T12:51:19.989Z,3.17
2023-04-13T12:53:46.420Z,3.20
2023-04-13T12:56:12.804Z,2.75
2023-04-13T12:58:39.239Z,2.40
2023-04-13T13:01:05.730Z,2.88
2023-04-13T13:03:32.255Z,2.45
2023-04-13T13:05:58.671Z,2.65
2023-04-13T13:08:26.166Z,2.83
2023-04-13T13:10:53.225Z,2.55
2023-04-13T13:13:19.668Z,2.65
2023-04-13T13:15:46.440Z,2.50
2023-04-13T13:18:13.767Z,2.38
2023-04-13T13:20:41.616Z,2.75
2023-04-13T13:23:12.424Z,2.10
2023-04-13T13:25:52.438Z,3.38
2023-04-13T13:28:29.747Z,7.70
2023-04-13T13:30:56.130Z,4.88
2023-04-13T13:33:23.391Z,3.50
2023-04-13T13:35:50.000Z,3.83
2023-04-13T13:38:16.619Z,3.33
2023-04-13T13:40:43.161Z,2.97
2023-04-13T13:43:13.019Z,3.55
2023-04-13T13:45:39.709Z,2.78
2023-04-13T13:48:06.689Z,2.65
2023-04-13T13:50:33.063Z,2.83
2023-04-13T13:53:04.342Z,2.20
2023-04-13T13:55:31.906Z,2.78
2023-04-13T13:57:58.629Z,2.20
2023-04-13T14:00:25.647Z,5.03
2023-04-13T14:02:53.220Z,2.60
2023-04-13T14:05:22.021Z,3.03
2023-04-13T14:07:48.788Z,2.67
2023-04-13T14:10:15.513Z,2.80
2023-04-13T14:12:44.474Z,1.70
2023-04-13T14:15:12.322Z,1.95
2023-04-13T14:17:39.770Z,2.42
2023-04-13T14:20:12.744Z,1.98
2023-04-13T14:22:40.648Z,3.25
2023-04-13T14:25:09.225Z,3.55
2023-04-13T14:27:36.179Z,2.58
2023-04-13T14:30:03.056Z,2.30
2023-04-13T14:32:29.554Z,4.10
2023-04-13T14:35:00.286Z,2.70
2023-04-13T14:37:27.787Z,3.03
2023-04-13T14:39:55.289Z,2.30
2023-04-13T14:42:24.372Z,2.10
2023-04-13T14:44:54.242Z,2.15
2023-04-13T14:47:20.894Z,2.53
2023-04-13T14:49:47.825Z,2.80
2023-04-13T14:52:15.174Z,2.47
2023-04-13T14:54:41.810Z,2.47
2023-04-13T14:57:09.674Z,2.10
2023-04-13T14:59:36.010Z,2.33
2023-04-13T15:02:03.902Z,3.38
2023-04-13T15:04:31.378Z,2.53
2023-04-13T15:06:58.819Z,2.10
2023-04-13T15:09:25.711Z,2.53
2023-04-13T15:11:55.999Z,2.25
2023-04-13T15:14:22.701Z,2.50
2023-04-13T15:16:49.245Z,2.38
2023-04-13T15:19:15.662Z,2.10
2023-04-13T15:21:42.259Z,2.30
2023-04-13T15:24:11.373Z,1.92
2023-04-13T15:26:42.981Z,2.33
2023-04-13T15:29:09.583Z,1.77
2023-04-13T15:31:37.482Z,2.38
2023-04-13T15:34:09.067Z,2.15
2023-04-13T15:36:36.385Z,3.20
2023-04-13T15:39:04.381Z,2.58
2023-04-13T15:41:31.516Z,2.10
2023-04-13T15:44:01.412Z,1.98
2023-04-13T15:46:27.972Z,2.10
2023-04-13T15:48:56.130Z,2.42
2023-04-13T15:51:23.315Z,2.45
2023-04-13T15:53:49.768Z,1.90
2023-04-13T15:56:16.682Z,2.42
2023-04-13T15:58:43.163Z,1.80
2023-04-13T16:01:11.263Z,2.08
2023-04-13T16:03:38.323Z,2.17
2023-04-13T16:06:05.095Z,2.35
2023-04-13T16:08:31.712Z,2.42
2023-04-13T16:10:58.303Z,2.28
2023-04-13T16:13:34.660Z,1.95
2023-04-13T16:16:08.011Z,2.13
2023-04-13T16:18:36.754Z,1.95
2023-04-13T16:21:03.973Z,2.20
2023-04-13T16:23:37.319Z,2.20
2023-04-13T16:26:04.021Z,2.67
2023-04-13T16:28:32.394Z,2.53
2023-04-13T16:30:59.283Z,3.08
2023-04-13T16:33:26.203Z,2.72
2023-04-13T16:35:52.641Z,2.53
2023-04-13T16:38:19.045Z,2.30
2023-04-13T16:40:45.848Z,2.33
2023-04-13T16:43:12.651Z,2.38
2023-04-13T16:45:39.039Z,1.98
2023-04-13T16:48:05.940Z,2.30
2023-04-13T16:50:32.771Z,2.65
2023-04-13T16:53:02.276Z,1.70
2023-04-13T16:55:28.786Z,2.60
2023-04-13T16:57:58.031Z,2.40
2023-04-13T17:00:24.797Z,2.22
2023-04-13T17:02:51.427Z,2.03
2023-04-13T17:05:19.537Z,2.42
2023-04-13T17:07:48.017Z,2.70
2023-04-13T17:10:14.606Z,2.45
2023-04-13T17:12:42.977Z,2.33
2023-04-13T17:15:10.043Z,2.13
2023-04-13T17:17:38.177Z,2.33
2023-04-13T17:20:06.720Z,2.20
2023-04-13T17:22:33.604Z,2.25
2023-04-13T17:25:00.902Z,2.90
2023-04-13T17:27:27.581Z,2.20
2023-04-13T17:29:53.983Z,2.40
2023-04-13T17:32:21.835Z,2.85
2023-04-13T17:34:49.386Z,2.72
2023-04-13T17:37:15.957Z,2.50
2023-04-13T17:39:47.281Z,3.22
2023-04-13T17:42:14.685Z,2.83
2023-04-13T17:44:41.720Z,2.42
2023-04-13T17:47:09.215Z,2.50
2023-04-13T17:49:36.854Z,2.33
2023-04-13T17:52:03.906Z,2.50
2023-04-13T17:54:30.332Z,2.53
2023-04-13T17:56:56.774Z,2.58
2023-04-13T17:59:23.377Z,2.60
2023-04-13T18:01:52.172Z,2.72
2023-04-13T18:04:19.071Z,2.85
2023-04-13T18:06:46.048Z,2.45
2023-04-13T18:09:12.737Z,2.95
2023-04-13T18:11:39.139Z,2.80
2023-04-13T18:14:05.879Z,2.63
2023-04-13T18:16:32.567Z,2.70
2023-04-13T18:18:59.051Z,2.97
2023-04-13T18:21:25.935Z,3.03
2023-04-13T18:23:53.997Z,2.40
2023-04-13T18:26:21.907Z,2.13
2023-04-13T18:28:48.421Z,2.55
2023-04-13T18:31:14.859Z,2.28
2023-04-13T18:33:44.574Z,2.33
2023-04-13T18:36:18.742Z,2.80
2023-04-13T18:38:45.943Z,2.67
2023-04-13T18:41:12.992Z,2.47
2023-04-13T18:43:39.631Z,2.60
2023-04-13T18:46:08.839Z,3.92
2023-04-13T18:48:35.975Z,3.05
2023-04-13T18:51:03.385Z,3.70
2023-04-13T18:53:30.523Z,3.23
2023-04-13T18:55:59.118Z,3.63
2023-04-13T19:00:53.937Z,3.55
2023-04-13T19:03:20.620Z,4.18
2023-04-13T19:05:47.691Z,3.88
2023-04-13T19:08:15.266Z,3.40
2023-04-13T19:10:42.238Z,3.07
2023-04-13T19:13:09.042Z,3.28
2023-04-13T19:15:35.863Z,4.05
2023-04-13T19:18:04.001Z,3.75
2023-04-13T19:20:30.433Z,3.75
2023-04-13T19:22:56.842Z,4.57
2023-04-13T19:25:23.440Z,4.97
2023-04-13T19:27:52.847Z,4.05
2023-04-13T19:30:19.786Z,4.55
2023-04-13T19:32:48.314Z,3.05
2023-04-13T19:37:42.027Z,3.80
2023-04-13T19:40:15.417Z,3.78
2023-04-13T19:42:43.379Z,3.97
2023-04-13T19:45:12.058Z,4.00
2023-04-13T19:47:43.023Z,4.03
2023-04-13T19:50:12.517Z,3.97
2023-04-13T19:52:39.882Z,4.03
2023-04-13T19:55:08.429Z,4.78
2023-04-13T20:00:07.206Z,3.85
2023-04-13T20:02:33.667Z,5.00
2023-04-13T20:05:00.412Z,6.38
2023-04-13T20:07:27.036Z,7.10
2023-04-13T20:09:54.448Z,8.48
2023-04-13T20:12:22.051Z,8.85
2023-04-13T20:14:49.376Z,9.13
2023-04-13T20:17:17.077Z,10.15
2023-04-13T20:19:43.683Z,9.03
2023-04-13T20:22:10.404Z,8.07
2023-04-13T20:24:36.756Z,8.80
2023-04-13T20:27:03.189Z,7.82
2023-04-13T20:29:29.835Z,7.88
2023-04-13T20:31:56.263Z,7.15
2023-04-13T20:34:24.399Z,6.60
2023-04-13T20:36:51.060Z,7.22
2023-04-13T20:39:25.204Z,7.78
2023-04-13T20:41:56.063Z,6.35
2023-04-13T20:44:25.805Z,7.30
2023-04-13T20:46:55.479Z,5.90
2023-04-13T20:49:26.833Z,6.38
2023-04-13T20:51:56.870Z,6.97
2023-04-13T20:54:26.574Z,6.07
2023-04-13T20:56:53.184Z,5.10
2023-04-13T20:59:19.588Z,4.07
2023-04-13T21:01:46.351Z,4.65
2023-04-13T21:04:12.825Z,4.72
2023-04-13T21:06:40.901Z,4.50
2023-04-13T21:09:08.553Z,4.10
2023-04-13T21:11:35.365Z,4.25
2023-04-13T21:14:02.563Z,4.47
2023-04-13T21:16:29.319Z,4.35
2023-04-13T21:18:56.094Z,4.15
2023-04-13T21:21:23.815Z,4.35
2023-04-13T21:23:51.227Z,4.53
2023-04-13T21:26:17.699Z,4.20
2023-04-13T21:28:45.454Z,3.95
2023-04-13T21:31:11.988Z,4.22
2023-04-13T21:33:39.458Z,4.20
2023-04-13T21:38:42.823Z,4.22
2023-04-13T21:41:20.345Z,4.50
2023-04-13T21:43:47.381Z,4.97
2023-04-13T21:46:15.347Z,4.85
2023-04-13T21:48:42.376Z,4.88
2023-04-13T21:51:09.602Z,5.63
2023-04-13T21:53:36.985Z,4.97
2023-04-13T21:56:04.820Z,4.53
2023-04-13T21:58:39.629Z,4.80
2023-04-13T22:01:07.237Z,5.82
2023-04-13T22:03:42.142Z,6.27
2023-04-13T22:06:10.582Z,6.90
2023-04-13T22:08:38.463Z,5.10
2023-04-13T22:11:05.324Z,5.78
2023-04-13T22:13:32.124Z,6.13
2023-04-13T22:15:58.676Z,7.68
2023-04-13T22:18:26.937Z,8.10
2023-04-13T22:20:53.513Z,8.80
2023-04-13T22:23:20.116Z,8.05
2023-04-13T22:25:59.409Z,7.35
2023-04-13T22:28:28.866Z,6.50
2023-04-13T22:30:55.549Z,7.38
2023-04-13T22:33:22.208Z,7.72
2023-04-13T22:35:51.903Z,7.28
2023-04-13T22:38:19.146Z,6.75
2023-04-13T22:40:45.731Z,6.90
2023-04-13T22:43:12.113Z,7.25
2023-04-13T22:45:38.616Z,7.63
2023-04-13T22:48:05.592Z,6.00
2023-04-13T22:50:32.295Z,6.10
2023-04-13T22:52:58.679Z,6.80
2023-04-13T22:55:25.178Z,7.40
2023-04-13T22:57:51.501Z,8.35
2023-04-13T23:00:20.589Z,7.18
2023-04-13T23:02:50.249Z,7.25
2023-04-13T23:05:17.467Z,7.97
2023-04-13T23:07:44.112Z,7.57
2023-04-13T23:10:10.749Z,8.07
2023-04-13T23:12:37.407Z,8.07
2023-04-13T23:15:04.421Z,8.25
2023-04-13T23:17:31.072Z,8.27
2023-04-13T23:20:00.268Z,6.63
2023-04-13T23:22:28.196Z,7.03
2023-04-13T23:24:54.512Z,8.40
2023-04-13T23:27:21.163Z,7.80
2023-04-13T23:29:50.439Z,7.15
2023-04-13T23:32:18.127Z,8.18
2023-04-13T23:34:44.500Z,7.68
2023-04-13T23:37:11.508Z,7.35
2023-04-13T23:39:37.990Z,6.75
2023-04-13T23:42:04.729Z,9.55
2023-04-13T23:44:31.282Z,8.05
2023-04-13T23:46:57.849Z,7.32
2023-04-13T23:49:24.268Z,6.60
2023-04-13T23:51:50.814Z,6.15
2023-04-13T23:54:17.222Z,6.60
2023-04-13T23:56:43.877Z,5.95
2023-04-13T23:59:10.638Z,5.07
